Whyalla Airport Aws, South Australia

7:10 AM ACST on May 29, 2015 (GMT +0930)
ISAMULLA2 | | Change Station
CLOSE
Current Station
Personal Weather Station
Location: Mullaquana, SA
Elevation: 0 ft
Nearby Weather Stations

Elev 0 ft 33.06 °S, 137.54 °E | Updated 52 seconds ago

Mostly Cloudy
Mostly Cloudy
50.2 °F
Feels Like 50.2 °F
N
1.3
Wind Variable Wind from WNW
Gusts 1.3 mph

Today
High -- | Low -- °F
--% Chance of Precip.
Yesterday
High -- | Low -- °F
Precip. -- in
7:12 AM 5:21 PM
Waxing Gibbous, 78% visible
Pressure 30.21 in
Visibility 6.2 miles
Clouds Mostly Cloudy 3900 ft
Dew Point 50 °F
Humidity 98%
Rainfall 0.00 in
Snow Depth Not available.
UV 0 out of 12
Pollen Not available.
Air Quality Not available.
Flu Activity Not available.
METAR YWHA 282100Z AUTO 30004KT 9999 // BKN039 08/07 Q1023

More Conditions Fewer Conditions

Pressure 30.21 in
Visibility 6.2 miles
Clouds Mostly Cloudy 3900 ft
Dew Point 50 °F
Humidity 98%
Rainfall 0.00 in
Snow Depth Not available.
UV 0 out of 12
Pollen Not available.
Air Quality Not available.
Flu Activity Not available.
METAR YWHA 282100Z AUTO 30004KT 9999 // BKN039 08/07 Q1023

More Conditions Fewer Conditions

10-Day Weather Forecast

Almanac

Astronomy

May. 29, 2015 Rise Set
Actual Time
Civil Twilight
Nautical Twilight
Astronomical Twilight
Moon
Length of Visible Light
Length of Day
Tomorrow will be .
, % of the Moon is Illuminated

Today's Extremes

Country Highs Country Lows

Community

WunderPhotos

Upload Photos

1,825,076 photos uploaded!

WunderBlogs® & News

Nearby

Air Quality

  Air Quality AQ Index Pollutant
Not available.

Snow Depth

Station Depth Elevation

Earthquake Activity

City Distance Mag. Time & Date
Minimum magnitude displayed is 2.5.

Coastal Water Temperatures

Place Temperature

Stations

Nearby Weather Stations

Station Location Temp. Windchill Dew Point Humidity Wind Precip. Elev Updated Type